Bilston, United Kingdom
Current Conditions -  °F | °C
As of 8:20 AM on Monday 22 Dec 2014 (Local Time) from EGBB Reporting Station
Few Clouds Few Clouds  
Wind Chill: 12°   Ceiling: Unl
Heat Index: 12°   Visibility: 6mi
Dew Point:   Wind: 15mph
Humidity: 72%   Direction: 250°WSW
Pressure: 29.94"   Gusts: NA
Location:  52.56°N, 2.07°W
Report Text: EGBB 220820Z 25013KT 210V280 9999 FEW028 12/07 Q1014
Loading
Personal Weather Stations






























Interactive Weather Map New forecast layout! Learn more

10-Day Weather Forecast

Advertisements
Track Severe Weather on mobile